Time,TemperatureF,DewpointF,PressureIn,WindDirection,WindDirectionDegrees,WindSpeedMPH,WindSpeedGustMPH,Humidity,HourlyPrecipIn,Conditions,Clouds,dailyrainin,SoftwareType,DateUTC
2013-05-20 00:02:00,54.0,50.0,-100.00,East,90,12.0,13.0,87,-99.99,,,-99.99,,2013-05-20 05:02:00,
2013-05-20 00:12:00,54.0,50.0,-100.00,East,90,12.0,13.0,87,-99.99,,,-99.99,,2013-05-20 05:12:00,
2013-05-20 00:22:00,54.0,50.0,-100.00,ESE,105,11.0,12.0,88,-99.99,,,-99.99,,2013-05-20 05:22:00,
2013-05-20 00:32:00,53.0,50.0,-100.00,ENE,75,11.0,14.0,89,-99.99,,,-99.99,,2013-05-20 05:32:00,
2013-05-20 00:42:00,53.0,50.0,-100.00,ENE,75,11.0,14.0,89,-99.99,,,-99.99,,2013-05-20 05:42:00,
2013-05-20 00:51:00,53.0,50.0,-100.00,ENE,70,10.0,12.0,89,-99.99,,,-99.99,,2013-05-20 05:51:00,
2013-05-20 01:01:00,53.0,50.0,-100.00,ENE,75,11.0,12.0,90,-99.99,,,-99.99,,2013-05-20 06:01:00,
2013-05-20 01:11:00,53.0,50.0,-100.00,ENE,75,11.0,12.0,90,-99.99,,,-99.99,,2013-05-20 06:11:00,
2013-05-20 01:21:00,52.0,49.0,-100.00,ENE,70,12.0,13.0,90,-99.99,,,-99.99,,2013-05-20 06:21:00,
2013-05-20 01:32:00,52.0,49.0,-100.00,ENE,75,11.0,12.0,90,-99.99,,,-99.99,,2013-05-20 06:32:00,
2013-05-20 01:41:00,52.0,49.0,-100.00,ENE,75,11.0,12.0,90,-99.99,,,-99.99,,2013-05-20 06:41:00,
2013-05-20 01:52:00,52.0,49.0,-100.00,ENE,65,11.0,12.0,90,-99.99,,,-99.99,,2013-05-20 06:52:00,
2013-05-20 02:02:00,52.0,50.0,-100.00,ENE,75,11.0,13.0,90,-99.99,,,-99.99,,2013-05-20 07:02:00,
2013-05-20 02:12:00,52.0,50.0,-100.00,ENE,75,11.0,13.0,90,-99.99,,,-99.99,,2013-05-20 07:12:00,
2013-05-20 02:21:00,52.0,49.0,-100.00,ENE,60,11.0,12.0,90,-99.99,,,-99.99,,2013-05-20 07:21:00,
2013-05-20 02:32:00,52.0,49.0,-100.00,ENE,65,8.0,10.0,90,-99.99,,,-99.99,,2013-05-20 07:32:00,
2013-05-20 02:42:00,52.0,49.0,-100.00,ENE,65,8.0,10.0,90,-99.99,,,-99.99,,2013-05-20 07:42:00,
2013-05-20 02:52:00,52.0,49.0,-100.00,East,95,6.0,9.0,90,-99.99,,,-99.99,,2013-05-20 07:52:00,
2013-05-20 03:01:00,53.0,50.0,-100.00,ESE,110,6.0,7.0,90,-99.99,,,-99.99,,2013-05-20 08:01:00,
2013-05-20 03:11:00,53.0,50.0,-100.00,ESE,110,6.0,7.0,90,-99.99,,,-99.99,,2013-05-20 08:11:00,
2013-05-20 03:21:00,53.0,50.0,-100.00,East,80,5.0,6.0,90,-99.99,,,-99.99,,2013-05-20 08:21:00,
2013-05-20 03:32:00,54.0,51.0,-100.00,NE,55,7.0,9.0,89,-99.99,,,-99.99,,2013-05-20 08:32:00,
2013-05-20 03:41:00,54.0,51.0,-100.00,NE,55,7.0,9.0,89,-99.99,,,-99.99,,2013-05-20 08:41:00,
2013-05-20 03:51:00,54.0,51.0,-100.00,NE,35,7.0,9.0,88,-99.99,,,-99.99,,2013-05-20 08:51:00,
2013-05-20 04:02:00,55.0,51.0,-100.00,NNE,25,9.0,11.0,86,-99.99,,,-99.99,,2013-05-20 09:02:00,
2013-05-20 04:12:00,55.0,51.0,-100.00,NNE,25,9.0,11.0,86,-99.99,,,-99.99,,2013-05-20 09:12:00,
2013-05-20 04:21:00,55.0,51.0,-100.00,NNE,20,9.0,11.0,86,-99.99,,,-99.99,,2013-05-20 09:21:00,
2013-05-20 04:32:00,56.0,52.0,-100.00,NNE,25,9.0,12.0,88,-99.99,,,-99.99,,2013-05-20 09:32:00,
2013-05-20 04:43:00,56.0,52.0,-100.00,NNE,25,9.0,12.0,88,-99.99,,,-99.99,,2013-05-20 09:43:00,
2013-05-20 04:52:00,56.0,53.0,-100.00,NNE,30,12.0,15.0,89,-99.99,,,-99.99,,2013-05-20 09:52:00,
2013-05-20 05:03:00,58.0,55.0,-100.00,NNE,30,12.0,15.0,90,-99.99,,,-99.99,,2013-05-20 10:03:00,
2013-05-20 05:12:00,58.0,55.0,-100.00,NNE,30,12.0,15.0,90,-99.99,,,-99.99,,2013-05-20 10:12:00,
2013-05-20 05:22:00,58.0,55.0,-100.00,NNE,30,15.0,18.0,90,-99.99,,,-99.99,,2013-05-20 10:22:00,
2013-05-20 05:32:00,58.0,56.0,-100.00,NNE,25,13.0,18.0,91,-99.99,,,-99.99,,2013-05-20 10:32:00,
2013-05-20 05:42:00,58.0,56.0,-100.00,NNE,25,13.0,18.0,91,-99.99,,,-99.99,,2013-05-20 10:42:00,
2013-05-20 05:52:00,59.0,56.0,-100.00,NNE,20,12.0,17.0,91,-99.99,,,-99.99,,2013-05-20 10:52:00,
2013-05-20 06:02:00,59.0,56.0,-100.00,NNE,20,16.0,20.0,91,-99.99,,,-99.99,,2013-05-20 11:02:00,
2013-05-20 06:12:00,59.0,56.0,-100.00,NNE,20,16.0,20.0,91,-99.99,,,-99.99,,2013-05-20 11:12:00,
2013-05-20 06:21:00,58.0,56.0,-100.00,NNE,20,17.0,22.0,91,-99.99,,,-99.99,,2013-05-20 11:21:00,
2013-05-20 06:32:00,58.0,55.0,-100.00,NNE,15,16.0,22.0,91,-99.99,,,-99.99,,2013-05-20 11:32:00,
2013-05-20 06:41:00,58.0,55.0,-100.00,NNE,15,16.0,22.0,91,-99.99,,,-99.99,,2013-05-20 11:41:00,
2013-05-20 06:51:00,58.0,55.0,-100.00,NNE,25,19.0,24.0,91,-99.99,,,-99.99,,2013-05-20 11:51:00,
2013-05-20 07:01:00,56.0,53.0,-100.00,NNE,20,21.0,25.0,91,-99.99,,,-99.99,,2013-05-20 12:01:00,
2013-05-20 07:11:00,56.0,53.0,-100.00,NNE,20,21.0,25.0,91,-99.99,,,-99.99,,2013-05-20 12:11:00,
2013-05-20 07:21:00,55.0,53.0,-100.00,NNE,15,20.0,26.0,90,-99.99,,,-99.99,,2013-05-20 12:21:00,
2013-05-20 07:32:00,54.0,52.0,-100.00,NNE,15,20.0,26.0,90,-99.99,,,-99.99,,2013-05-20 12:32:00,
2013-05-20 07:41:00,54.0,52.0,-100.00,NNE,15,20.0,26.0,90,-99.99,,,-99.99,,2013-05-20 12:41:00,
2013-05-20 07:52:00,54.0,51.0,-100.00,NNE,15,17.0,24.0,90,-99.99,,,-99.99,,2013-05-20 12:52:00,
2013-05-20 08:01:00,53.0,51.0,-100.00,North,10,21.0,27.0,90,-99.99,,,-99.99,,2013-05-20 13:01:00,
2013-05-20 08:11:00,53.0,51.0,-100.00,North,10,21.0,27.0,90,-99.99,,,-99.99,,2013-05-20 13:11:00,
2013-05-20 08:22:00,53.0,50.0,-100.00,NNE,15,21.0,25.0,90,-99.99,,,-99.99,,2013-05-20 13:22:00,
2013-05-20 08:31:00,53.0,50.0,-100.00,North,5,22.0,27.0,90,-99.99,,,-99.99,,2013-05-20 13:31:00,
2013-05-20 08:41:00,53.0,50.0,-100.00,North,5,22.0,27.0,90,-99.99,,,-99.99,,2013-05-20 13:41:00,
2013-05-20 08:52:00,52.0,49.0,-100.00,North,10,24.0,30.0,90,-99.99,,,-99.99,,2013-05-20 13:52:00,
2013-05-20 09:01:00,52.0,49.0,-100.00,NNE,15,19.0,28.0,90,-99.99,,,-99.99,,2013-05-20 14:01:00,
2013-05-20 09:11:00,52.0,49.0,-100.00,NNE,15,19.0,28.0,90,-99.99,,,-99.99,,2013-05-20 14:11:00,
2013-05-20 09:22:00,52.0,49.0,-100.00,North,350,16.0,24.0,90,-99.99,,,-99.99,,2013-05-20 14:22:00,
2013-05-20 09:32:00,52.0,49.0,-100.00,North,0,23.0,26.0,89,-99.99,,,-99.99,,2013-05-20 14:32:00,
2013-05-20 09:41:00,52.0,49.0,-100.00,North,0,23.0,26.0,89,-99.99,,,-99.99,,2013-05-20 14:41:00,
2013-05-20 09:52:00,52.0,48.0,-100.00,North,10,22.0,27.0,88,-99.99,,,-99.99,,2013-05-20 14:52:00,
2013-05-20 10:01:00,51.0,48.0,-100.00,North,0,20.0,25.0,88,-99.99,,,-99.99,,2013-05-20 15:01:00,
2013-05-20 10:11:00,51.0,48.0,-100.00,North,0,20.0,25.0,88,-99.99,,,-99.99,,2013-05-20 15:11:00,
2013-05-20 10:21:00,51.0,48.0,-100.00,North,355,21.0,27.0,89,-99.99,,,-99.99,,2013-05-20 15:21:00,
2013-05-20 10:33:00,51.0,48.0,-100.00,North,0,22.0,26.0,89,-99.99,,,-99.99,,2013-05-20 15:33:00,
2013-05-20 10:42:00,51.0,48.0,-100.00,North,0,22.0,26.0,89,-99.99,,,-99.99,,2013-05-20 15:42:00,
2013-05-20 10:53:00,52.0,48.0,-100.00,North,355,18.0,26.0,88,-99.99,,,-99.99,,2013-05-20 15:53:00,
2013-05-20 11:03:00,52.0,49.0,-100.00,NNW,345,20.0,26.0,88,-99.99,,,-99.99,,2013-05-20 16:03:00,
2013-05-20 11:12:00,52.0,49.0,-100.00,NNW,345,20.0,26.0,88,-99.99,,,-99.99,,2013-05-20 16:12:00,
2013-05-20 11:22:00,52.0,49.0,-100.00,NNW,345,20.0,27.0,88,-99.99,,,-99.99,,2013-05-20 16:22:00,
2013-05-20 11:33:00,52.0,49.0,-100.00,NNW,345,22.0,29.0,88,-99.99,,,-99.99,,2013-05-20 16:33:00,
2013-05-20 11:42:00,52.0,49.0,-100.00,NNW,345,22.0,29.0,88,-99.99,,,-99.99,,2013-05-20 16:42:00,
2013-05-20 11:52:00,52.0,49.0,-100.00,NNW,340,21.0,28.0,88,-99.99,,,-99.99,,2013-05-20 16:52:00,
2013-05-20 12:02:00,52.0,49.0,-100.00,NNW,345,21.0,27.0,88,-99.99,,,-99.99,,2013-05-20 17:02:00,
2013-05-20 12:12:00,52.0,49.0,-100.00,NNW,345,21.0,27.0,88,-99.99,,,-99.99,,2013-05-20 17:12:00,
2013-05-20 12:22:00,52.0,49.0,-100.00,NNW,335,23.0,27.0,86,-99.99,,,-99.99,,2013-05-20 17:22:00,
2013-05-20 12:33:00,53.0,49.0,-100.00,NNW,330,21.0,27.0,86,-99.99,,,-99.99,,2013-05-20 17:33:00,
2013-05-20 12:45:00,53.0,49.0,-100.00,NNW,330,21.0,27.0,86,-99.99,,,-99.99,,2013-05-20 17:45:00,
2013-05-20 12:53:00,54.0,49.0,-100.00,NNW,330,20.0,27.0,86,-99.99,,,-99.99,,2013-05-20 17:53:00,
2013-05-20 13:02:00,54.0,50.0,-100.00,NNW,335,17.0,26.0,86,-99.99,,,-99.99,,2013-05-20 18:02:00,
2013-05-20 13:12:00,54.0,50.0,-100.00,NNW,335,17.0,26.0,86,-99.99,,,-99.99,,2013-05-20 18:12:00,
2013-05-20 13:23:00,54.0,50.0,-100.00,NW,320,22.0,27.0,85,-99.99,,,-99.99,,2013-05-20 18:23:00,
2013-05-20 13:32:00,53.0,49.0,-100.00,NNW,335,22.0,29.0,87,-99.99,,,-99.99,,2013-05-20 18:32:00,
2013-05-20 13:41:00,53.0,49.0,-100.00,NNW,335,22.0,29.0,87,-99.99,,,-99.99,,2013-05-20 18:41:00,
2013-05-20 13:55:00,54.0,51.0,-100.00,NW,325,21.0,27.0,88,-99.99,,,-99.99,,2013-05-20 18:55:00,
2013-05-20 14:04:00,53.0,49.0,-100.00,NNW,340,18.0,30.0,88,-99.99,,,-99.99,,2013-05-20 19:04:00,
2013-05-20 14:11:00,53.0,49.0,-100.00,NNW,340,18.0,30.0,88,-99.99,,,-99.99,,2013-05-20 19:11:00,
2013-05-20 14:21:00,52.0,49.0,-100.00,NW,325,22.0,26.0,88,-99.99,,,-99.99,,2013-05-20 19:21:00,
2013-05-20 14:32:00,52.0,49.0,-100.00,NNW,330,21.0,28.0,88,-99.99,,,-99.99,,2013-05-20 19:32:00,
2013-05-20 14:41:00,52.0,49.0,-100.00,NNW,330,21.0,28.0,88,-99.99,,,-99.99,,2013-05-20 19:41:00,
2013-05-20 14:52:00,53.0,49.0,-100.00,NNW,330,21.0,28.0,89,-99.99,,,-99.99,,2013-05-20 19:52:00,
2013-05-20 15:01:00,52.0,49.0,-100.00,NNW,330,22.0,27.0,89,-99.99,,,-99.99,,2013-05-20 20:01:00,
2013-05-20 15:12:00,52.0,49.0,-100.00,NNW,330,22.0,27.0,89,-99.99,,,-99.99,,2013-05-20 20:12:00,
2013-05-20 15:21:00,52.0,49.0,-100.00,NW,325,23.0,28.0,89,-99.99,,,-99.99,,2013-05-20 20:21:00,
2013-05-20 15:32:00,52.0,49.0,-100.00,NNW,330,24.0,31.0,89,-99.99,,,-99.99,,2013-05-20 20:32:00,
2013-05-20 15:42:00,52.0,49.0,-100.00,NNW,330,24.0,31.0,89,-99.99,,,-99.99,,2013-05-20 20:42:00,
2013-05-20 15:51:00,53.0,49.0,-100.00,NNW,340,21.0,29.0,89,-99.99,,,-99.99,,2013-05-20 20:51:00,
2013-05-20 16:01:00,52.0,49.0,-100.00,NNW,340,24.0,30.0,89,-99.99,,,-99.99,,2013-05-20 21:01:00,
2013-05-20 16:11:00,52.0,49.0,-100.00,NNW,340,24.0,30.0,89,-99.99,,,-99.99,,2013-05-20 21:11:00,
2013-05-20 16:21:00,53.0,49.0,-100.00,NNW,345,22.0,29.0,89,-99.99,,,-99.99,,2013-05-20 21:21:00,
2013-05-20 16:33:00,52.0,49.0,-100.00,NNW,335,24.0,29.0,89,-99.99,,,-99.99,,2013-05-20 21:33:00,
2013-05-20 16:43:00,52.0,49.0,-100.00,NNW,335,24.0,29.0,89,-99.99,,,-99.99,,2013-05-20 21:43:00,
2013-05-20 16:53:00,52.0,49.0,-100.00,NNW,335,23.0,32.0,89,-99.99,,,-99.99,,2013-05-20 21:53:00,
2013-05-20 17:02:00,51.0,48.0,-100.00,NNW,345,28.0,34.0,89,-99.99,,,-99.99,,2013-05-20 22:02:00,
2013-05-20 17:12:00,51.0,48.0,-100.00,NNW,345,28.0,34.0,89,-99.99,,,-99.99,,2013-05-20 22:12:00,
2013-05-20 17:23:00,51.0,48.0,-100.00,NNW,340,26.0,35.0,88,-99.99,,,-99.99,,2013-05-20 22:23:00,
2013-05-20 17:33:00,51.0,48.0,-100.00,NNW,345,26.0,33.0,87,-99.99,,,-99.99,,2013-05-20 22:33:00,
2013-05-20 17:42:00,51.0,48.0,-100.00,NNW,345,26.0,33.0,87,-99.99,,,-99.99,,2013-05-20 22:42:00,
2013-05-20 17:52:00,51.0,48.0,-100.00,North,350,27.0,34.0,87,-99.99,,,-99.99,,2013-05-20 22:52:00,
2013-05-20 18:03:00,51.0,48.0,-100.00,North,350,26.0,32.0,88,-99.99,,,-99.99,,2013-05-20 23:03:00,
2013-05-20 18:12:00,51.0,48.0,-100.00,North,350,26.0,32.0,88,-99.99,,,-99.99,,2013-05-20 23:12:00,
2013-05-20 18:22:00,51.0,47.0,-100.00,NNW,340,26.0,34.0,88,-99.99,,,-99.99,,2013-05-20 23:22:00,
2013-05-20 18:32:00,51.0,47.0,-100.00,NNW,340,24.0,35.0,88,-99.99,,,-99.99,,2013-05-20 23:32:00,
2013-05-20 18:42:00,51.0,47.0,-100.00,NNW,340,24.0,35.0,88,-99.99,,,-99.99,,2013-05-20 23:42:00,
2013-05-20 18:52:00,50.0,47.0,-100.00,NNW,340,29.0,35.0,89,-99.99,,,-99.99,,2013-05-20 23:52:00,
2013-05-20 19:01:00,50.0,47.0,-100.00,NNW,340,29.0,36.0,89,-99.99,,,-99.99,,2013-05-21 00:01:00,
2013-05-20 19:11:00,50.0,47.0,-100.00,NNW,340,29.0,36.0,89,-99.99,,,-99.99,,2013-05-21 00:11:00,
2013-05-20 19:21:00,50.0,47.0,-100.00,NNW,335,21.0,31.0,89,-99.99,,,-99.99,,2013-05-21 00:21:00,
2013-05-20 19:32:00,49.0,47.0,-100.00,NNW,340,29.0,34.0,90,-99.99,,,-99.99,,2013-05-21 00:32:00,
2013-05-20 19:41:00,49.0,47.0,-100.00,NNW,340,29.0,34.0,90,-99.99,,,-99.99,,2013-05-21 00:41:00,
2013-05-20 19:52:00,49.0,47.0,-100.00,NNW,340,27.0,34.0,90,-99.99,,,-99.99,,2013-05-21 00:52:00,
2013-05-20 20:01:00,49.0,46.0,-100.00,NNW,340,27.0,38.0,90,-99.99,,,-99.99,,2013-05-21 01:01:00,
2013-05-20 20:11:00,49.0,46.0,-100.00,NNW,340,27.0,38.0,90,-99.99,,,-99.99,,2013-05-21 01:11:00,
2013-05-20 20:22:00,49.0,46.0,-100.00,NNW,340,24.0,34.0,90,-99.99,,,-99.99,,2013-05-21 01:22:00,
2013-05-20 20:32:00,49.0,46.0,-100.00,NNW,340,24.0,30.0,90,-99.99,,,-99.99,,2013-05-21 01:32:00,
2013-05-20 20:42:00,49.0,46.0,-100.00,NNW,340,24.0,30.0,90,-99.99,,,-99.99,,2013-05-21 01:42:00,
2013-05-20 20:52:00,49.0,46.0,-100.00,NNW,335,23.0,34.0,90,-99.99,,,-99.99,,2013-05-21 01:52:00,
2013-05-20 21:02:00,49.0,46.0,-100.00,NNW,340,26.0,32.0,90,-99.99,,,-99.99,,2013-05-21 02:02:00,
2013-05-20 21:11:00,49.0,46.0,-100.00,NNW,340,26.0,32.0,90,-99.99,,,-99.99,,2013-05-21 02:11:00,
2013-05-20 21:21:00,48.0,46.0,-100.00,NNW,345,28.0,34.0,90,-99.99,,,-99.99,,2013-05-21 02:21:00,
2013-05-20 21:32:00,48.0,46.0,-100.00,NNW,345,25.0,34.0,90,-99.99,,,-99.99,,2013-05-21 02:32:00,
2013-05-20 21:41:00,48.0,46.0,-100.00,NNW,345,25.0,34.0,90,-99.99,,,-99.99,,2013-05-21 02:41:00,
2013-05-20 21:52:00,48.0,45.0,-100.00,NNW,340,30.0,34.0,90,-99.99,,,-99.99,,2013-05-21 02:52:00,
2013-05-20 22:02:00,48.0,45.0,-100.00,NNW,335,26.0,37.0,91,-99.99,,,-99.99,,2013-05-21 03:02:00,
2013-05-20 22:11:00,48.0,45.0,-100.00,NNW,335,26.0,37.0,91,-99.99,,,-99.99,,2013-05-21 03:11:00,
2013-05-20 22:21:00,48.0,45.0,-100.00,NNW,335,26.0,34.0,91,-99.99,,,-99.99,,2013-05-21 03:21:00,
2013-05-20 22:33:00,48.0,45.0,-100.00,NNW,340,27.0,34.0,91,-99.99,,,-99.99,,2013-05-21 03:33:00,
2013-05-20 22:43:00,48.0,45.0,-100.00,NNW,340,27.0,34.0,91,-99.99,,,-99.99,,2013-05-21 03:43:00,
2013-05-20 22:53:00,48.0,45.0,-100.00,NNW,340,27.0,37.0,91,-99.99,,,-99.99,,2013-05-21 03:53:00,
2013-05-20 23:03:00,48.0,45.0,-100.00,NNW,345,27.0,34.0,91,-99.99,,,-99.99,,2013-05-21 04:03:00,
2013-05-20 23:13:00,48.0,45.0,-100.00,NNW,345,27.0,34.0,91,-99.99,,,-99.99,,2013-05-21 04:13:00,
2013-05-20 23:23:00,48.0,45.0,-100.00,NNW,345,29.0,39.0,91,-99.99,,,-99.99,,2013-05-21 04:23:00,
2013-05-20 23:33:00,47.0,45.0,-100.00,NNW,345,29.0,38.0,91,-99.99,,,-99.99,,2013-05-21 04:33:00,
2013-05-20 23:42:00,47.0,45.0,-100.00,NNW,345,29.0,38.0,91,-99.99,,,-99.99,,2013-05-21 04:42:00,
2013-05-20 23:52:00,47.0,45.0,-100.00,North,0,30.0,42.0,91,-99.99,,,-99.99,,2013-05-21 04:52:00,